Time;durP1;ratioP1;P1;durP2;ratioP2;P2;SDS_P1;SDS_P2;PMS_P1;PMS_P2;Temp;Humidity;BMP_temperature;BMP_pressure;BME280_temperature;BME280_humidity;BME280_pressure;Samples;Min_cycle;Max_cycle;Signal;HPM_P1;HPM_P2
2024/01/01 00:00:33;;;;;;;36.27;22.67;;;9.10;99.90;;;;;;5053516;28;20205;-58
2024/01/01 00:03:00;;;;;;;15.87;9.07;;;9.10;99.90;;;;;;5054867;28;20316;-58
2024/01/01 00:05:26;;;;;;;13.10;8.63;;;9.00;99.90;;;;;;5054651;28;20212;-56
2024/01/01 00:07:54;;;;;;;14.03;8.50;;;8.90;99.90;;;;;;5054520;28;20205;-57
2024/01/01 00:10:21;;;;;;;15.93;8.73;;;8.90;99.90;;;;;;5054491;28;20209;-56
2024/01/01 00:12:48;;;;;;;13.43;7.93;;;8.90;99.90;;;;;;5054141;28;20222;-57
2024/01/01 00:15:15;;;;;;;13.77;8.20;;;8.90;99.90;;;;;;5054695;28;20206;-57
2024/01/01 00:17:41;;;;;;;17.03;9.27;;;9.00;99.90;;;;;;5038212;28;20201;-57
2024/01/01 00:20:11;;;;;;;14.40;9.53;;;9.00;99.90;;;;;;5054139;28;20263;-57
2024/01/01 00:22:37;;;;;;;17.30;11.47;;;9.10;99.90;;;;;;5053593;28;20237;-57
2024/01/01 00:25:06;;;;;;;13.43;9.53;;;9.10;99.90;;;;;;5054036;28;20624;-57
2024/01/01 00:27:33;;;;;;;13.17;10.57;;;9.10;99.90;;;;;;5054239;28;20228;-57
2024/01/01 00:30:00;;;;;;;16.10;9.63;;;9.10;99.90;;;;;;5053624;28;20297;-57
2024/01/01 00:32:26;;;;;;;19.00;9.43;;;9.10;99.90;;;;;;5053660;28;20255;-58
2024/01/01 00:34:53;;;;;;;13.63;9.00;;;9.10;99.90;;;;;;5053621;28;20216;-57
2024/01/01 00:37:20;;;;;;;13.83;9.30;;;8.90;99.90;;;;;;5053382;28;20679;-58
2024/01/01 00:39:46;;;;;;;17.47;9.73;;;8.90;99.90;;;;;;5053619;28;20679;-57
2024/01/01 00:42:14;;;;;;;17.63;9.80;;;8.90;99.90;;;;;;5053333;28;20248;-56
2024/01/01 00:44:43;;;;;;;15.10;9.20;;;9.00;99.90;;;;;;5053386;28;20221;-56
2024/01/01 00:47:10;;;;;;;15.53;8.43;;;8.90;99.90;;;;;;5053397;28;20601;-57
2024/01/01 00:49:36;;;;;;;12.60;7.40;;;8.90;99.90;;;;;;5053499;28;20221;-57
2024/01/01 00:52:03;;;;;;;10.63;7.70;;;8.80;99.90;;;;;;5053536;28;20229;-58
2024/01/01 00:54:30;;;;;;;9.77;6.60;;;8.80;99.90;;;;;;5053636;28;20202;-57
2024/01/01 00:56:57;;;;;;;10.53;7.13;;;8.70;99.90;;;;;;5053318;28;20621;-57
2024/01/01 00:59:25;;;;;;;9.67;6.43;;;8.70;99.90;;;;;;5053202;28;20586;-56
2024/01/01 01:01:53;;;;;;;10.00;6.30;;;8.70;99.90;;;;;;5052823;28;20225;-55
2024/01/01 01:04:19;;;;;;;9.37;6.60;;;8.90;99.90;;;;;;5053153;28;20268;-57
2024/01/01 01:06:46;;;;;;;10.67;6.03;;;9.00;99.90;;;;;;5053324;28;20206;-57
2024/01/01 01:09:13;;;;;;;11.97;6.50;;;9.20;99.90;;;;;;5053204;28;20645;-57
2024/01/01 01:11:40;;;;;;;11.00;6.50;;;9.30;99.90;;;;;;5051813;28;20208;-58
2024/01/01 01:14:07;;;;;;;11.87;6.50;;;9.30;99.90;;;;;;5053044;28;20328;-57
2024/01/01 01:16:35;;;;;;;10.27;6.03;;;9.30;99.90;;;;;;5052786;28;20268;-57
2024/01/01 01:19:02;;;;;;;9.17;5.70;;;9.30;99.90;;;;;;5052838;28;20209;-58
2024/01/01 01:21:28;;;;;;;11.10;5.77;;;9.40;99.90;;;;;;5052897;28;20263;-57
2024/01/01 01:23:57;;;;;;;9.43;5.17;;;9.40;99.90;;;;;;5052671;28;20236;-57
2024/01/01 01:26:23;;;;;;;8.03;5.33;;;9.50;99.90;;;;;;5052847;28;20209;-57
2024/01/01 01:28:50;;;;;;;7.47;4.37;;;9.50;99.90;;;;;;5052779;28;20210;-57
2024/01/01 01:31:17;;;;;;;8.97;5.10;;;9.50;99.90;;;;;;5052956;28;20206;-57
2024/01/01 01:33:45;;;;;;;9.80;4.93;;;9.60;99.90;;;;;;5036501;28;20304;-57
2024/01/01 01:36:14;;;;;;;11.03;5.27;;;9.60;99.90;;;;;;5052744;28;20210;-56
2024/01/01 01:38:40;;;;;;;8.70;5.10;;;9.60;99.90;;;;;;5052639;28;20198;-55
2024/01/01 01:41:07;;;;;;;8.33;4.67;;;9.60;99.90;;;;;;5052536;28;20198;-56
2024/01/01 01:43:34;;;;;;;7.87;4.70;;;9.80;99.90;;;;;;5051547;28;20601;-56
2024/01/01 01:46:00;;;;;;;8.27;4.60;;;9.70;99.90;;;;;;5052611;28;20259;-56
2024/01/01 01:48:28;;;;;;;7.50;4.80;;;9.70;99.90;;;;;;5052630;28;20202;-56
2024/01/01 01:50:56;;;;;;;5.33;4.10;;;9.80;99.90;;;;;;5052606;28;20205;-57
2024/01/01 01:53:23;;;;;;;11.50;5.37;;;9.80;99.90;;;;;;5052046;28;20279;-56
2024/01/01 01:55:51;;;;;;;8.50;4.10;;;9.80;99.90;;;;;;5052177;28;20221;-56
2024/01/01 01:58:18;;;;;;;8.00;5.00;;;9.70;99.90;;;;;;5052147;28;20292;-55
2024/01/01 02:00:46;;;;;;;5.87;4.00;;;9.80;99.90;;;;;;5052460;28;20201;-56
2024/01/01 02:03:13;;;;;;;5.30;3.37;;;9.80;99.90;;;;;;5051969;28;20288;-55
2024/01/01 02:05:40;;;;;;;7.80;3.87;;;9.90;99.90;;;;;;5052127;28;20202;-57
2024/01/01 02:08:09;;;;;;;10.30;5.30;;;9.90;99.90;;;;;;5051981;28;20201;-56
2024/01/01 02:10:36;;;;;;;6.37;3.80;;;10.00;99.90;;;;;;5051773;28;20225;-56
2024/01/01 02:13:03;;;;;;;11.43;4.50;;;9.90;99.90;;;;;;5051828;28;20233;-57
2024/01/01 02:15:30;;;;;;;8.67;4.43;;;9.90;99.90;;;;;;5051851;28;20201;-57
2024/01/01 02:17:57;;;;;;;6.70;4.03;;;9.90;99.90;;;;;;5051855;28;20255;-57
2024/01/01 02:20:24;;;;;;;9.70;4.47;;;9.90;99.90;;;;;;5051672;28;20296;-56
2024/01/01 02:22:54;;;;;;;5.13;3.47;;;9.90;99.90;;;;;;5050788;28;20232;-58
2024/01/01 02:25:21;;;;;;;7.00;4.00;;;9.90;99.90;;;;;;5051237;28;20278;-56
2024/01/01 02:27:48;;;;;;;5.73;3.93;;;9.90;99.90;;;;;;5051672;28;20208;-56
2024/01/01 02:30:14;;;;;;;5.53;3.73;;;9.80;99.90;;;;;;5051762;28;20260;-57
2024/01/01 02:32:41;;;;;;;6.97;3.50;;;9.90;99.90;;;;;;5051718;28;20221;-56
2024/01/01 02:35:09;;;;;;;7.27;3.80;;;9.80;99.90;;;;;;5051577;28;20204;-57
2024/01/01 02:37:36;;;;;;;5.97;3.83;;;9.70;99.90;;;;;;5051174;28;20615;-56
2024/01/01 02:40:05;;;;;;;4.97;3.10;;;9.70;99.90;;;;;;5051669;28;20202;-56
2024/01/01 02:42:32;;;;;;;5.37;3.73;;;9.70;99.90;;;;;;5051281;28;20253;-56
2024/01/01 02:44:59;;;;;;;7.17;3.97;;;9.70;99.90;;;;;;5051189;28;20328;-56
2024/01/01 02:47:26;;;;;;;4.30;3.10;;;9.70;99.90;;;;;;5051047;28;20214;-56
2024/01/01 02:49:52;;;;;;;3.93;3.10;;;9.70;99.90;;;;;;5051327;28;20534;-57
2024/01/01 02:52:19;;;;;;;8.47;3.83;;;9.70;99.90;;;;;;5051644;28;20229;-57
2024/01/01 02:54:46;;;;;;;5.63;3.50;;;9.70;99.90;;;;;;5035307;28;20197;-57
2024/01/01 02:57:14;;;;;;;7.37;3.33;;;9.70;99.90;;;;;;5051104;28;20582;-57
2024/01/01 02:59:41;;;;;;;6.67;3.33;;;9.80;99.90;;;;;;5050978;28;20251;-57
2024/01/01 03:02:09;;;;;;;6.87;3.73;;;9.80;99.90;;;;;;5050806;28;20316;-55
2024/01/01 03:04:36;;;;;;;4.87;3.63;;;9.80;99.90;;;;;;5050774;28;20217;-57
2024/01/01 03:07:03;;;;;;;6.97;4.23;;;9.70;99.90;;;;;;5051195;28;20256;-58
2024/01/01 03:09:30;;;;;;;7.03;3.53;;;9.60;99.90;;;;;;5050867;28;20653;-58
2024/01/01 03:11:57;;;;;;;5.53;4.10;;;9.60;99.90;;;;;;5051005;28;20237;-57
2024/01/01 03:14:25;;;;;;;6.67;4.20;;;9.60;99.90;;;;;;5051053;28;20197;-57
2024/01/01 03:16:51;;;;;;;7.20;4.23;;;9.70;99.90;;;;;;5051006;28;20197;-57
2024/01/01 03:19:18;;;;;;;4.93;3.60;;;9.70;99.90;;;;;;5050834;28;20209;-56
2024/01/01 03:21:45;;;;;;;8.63;4.53;;;9.60;99.90;;;;;;5050402;28;20209;-57
2024/01/01 03:24:11;;;;;;;7.47;4.17;;;9.50;99.90;;;;;;5050654;28;20702;-57
2024/01/01 03:26:38;;;;;;;9.03;4.50;;;9.40;99.90;;;;;;5050897;28;20232;-57
2024/01/01 03:29:05;;;;;;;5.93;4.10;;;9.50;99.90;;;;;;5050769;28;20663;-57
2024/01/01 03:31:32;;;;;;;6.57;4.60;;;9.40;99.90;;;;;;5050626;28;20206;-57
2024/01/01 03:33:59;;;;;;;8.07;4.73;;;9.40;99.90;;;;;;5050633;28;20220;-57
2024/01/01 03:36:26;;;;;;;7.23;4.30;;;9.40;99.90;;;;;;5054347;28;20213;-59
2024/01/01 03:38:52;;;;;;;8.77;4.93;;;9.50;99.90;;;;;;5054866;28;20210;-58
2024/01/01 03:41:19;;;;;;;7.90;4.40;;;9.40;99.90;;;;;;5055100;28;20265;-58
2024/01/01 03:43:46;;;;;;;10.87;4.23;;;9.40;99.90;;;;;;5038023;28;20326;-57
2024/01/01 03:46:13;;;;;;;7.47;4.10;;;9.50;99.90;;;;;;5054536;28;20209;-57
2024/01/01 03:48:41;;;;;;;7.33;4.27;;;9.50;99.90;;;;;;5054711;28;20212;-57
2024/01/01 03:51:07;;;;;;;6.07;3.73;;;9.50;99.90;;;;;;5054872;28;20206;-57
2024/01/01 03:53:34;;;;;;;8.57;4.40;;;9.40;99.90;;;;;;5054161;28;20225;-57
2024/01/01 03:56:01;;;;;;;6.70;3.93;;;9.40;99.90;;;;;;5054422;28;20220;-57
2024/01/01 03:58:27;;;;;;;8.03;4.20;;;9.40;99.90;;;;;;5054455;28;20255;-56
2024/01/01 04:00:54;;;;;;;7.50;4.10;;;9.30;99.90;;;;;;5054474;28;20229;-56
2024/01/01 04:03:21;;;;;;;6.13;3.90;;;9.30;99.90;;;;;;5054006;28;20769;-57
2024/01/01 04:05:49;;;;;;;6.97;3.77;;;9.20;99.90;;;;;;5038088;28;20218;-56
2024/01/01 04:08:16;;;;;;;7.90;4.23;;;9.20;99.90;;;;;;5054142;28;20583;-56
2024/01/01 04:10:43;;;;;;;6.90;3.77;;;9.30;99.90;;;;;;5054306;28;20206;-57
2024/01/01 04:13:09;;;;;;;6.63;3.53;;;9.40;99.90;;;;;;5053820;28;20224;-56
2024/01/01 04:15:36;;;;;;;6.00;3.47;;;9.40;99.90;;;;;;5054005;28;20198;-56
2024/01/01 04:18:03;;;;;;;6.10;3.10;;;9.30;99.90;;;;;;5054002;28;20210;-58
2024/01/01 04:20:30;;;;;;;6.43;3.53;;;9.30;99.90;;;;;;5054013;28;20256;-56
2024/01/01 04:22:58;;;;;;;8.27;4.13;;;9.30;99.90;;;;;;5074178;22;20230;-64
2024/01/01 04:25:25;;;;;;;5.50;3.30;;;9.30;99.90;;;;;;5045464;28;20290;-64
2024/01/01 04:27:52;;;;;;;6.80;3.27;;;9.20;99.90;;;;;;5042595;28;20208;-63
2024/01/01 04:30:19;;;;;;;5.13;2.83;;;9.00;99.90;;;;;;5042421;28;20220;-64
2024/01/01 04:32:45;;;;;;;7.20;3.13;;;9.00;99.90;;;;;;5050087;28;20225;-64
2024/01/01 04:35:12;;;;;;;5.50;3.17;;;8.90;99.90;;;;;;5053915;28;20221;-64
2024/01/01 04:37:39;;;;;;;7.37;2.90;;;8.90;99.90;;;;;;5053792;28;20565;-64
2024/01/01 04:40:08;;;;;;;4.10;2.90;;;8.70;99.90;;;;;;5053984;28;20198;-64
2024/01/01 04:42:35;;;;;;;7.93;3.40;;;8.50;99.90;;;;;;5053408;28;20225;-64
2024/01/01 04:45:02;;;;;;;6.20;2.70;;;8.20;99.90;;;;;;5053783;28;20222;-64
2024/01/01 04:47:28;;;;;;;5.60;2.60;;;8.20;99.90;;;;;;5052534;28;20212;-65
2024/01/01 04:49:55;;;;;;;4.83;2.63;;;8.00;99.90;;;;;;5053634;28;20202;-64
2024/01/01 04:52:22;;;;;;;4.17;2.60;;;7.90;99.90;;;;;;5053333;28;20229;-64
2024/01/01 04:54:48;;;;;;;5.80;2.73;;;8.00;99.90;;;;;;5053616;28;20208;-64
2024/01/01 04:57:16;;;;;;;6.40;2.43;;;8.00;99.90;;;;;;5053494;28;20206;-64
2024/01/01 04:59:43;;;;;;;3.60;2.07;;;8.10;99.90;;;;;;5053545;28;20346;-64
2024/01/01 05:02:10;;;;;;;4.57;2.30;;;8.00;99.90;;;;;;5053310;28;20738;-64
2024/01/01 05:04:37;;;;;;;4.33;2.10;;;7.90;99.90;;;;;;5053104;28;20251;-63
2024/01/01 05:07:03;;;;;;;3.90;1.80;;;7.80;99.90;;;;;;5053505;28;20205;-64
2024/01/01 05:09:30;;;;;;;3.50;2.07;;;7.70;99.90;;;;;;5053329;28;20617;-64
2024/01/01 05:11:57;;;;;;;4.50;2.37;;;7.60;99.90;;;;;;5052935;28;20202;-63
2024/01/01 05:14:25;;;;;;;2.93;1.80;;;7.50;99.90;;;;;;5053129;28;20247;-64
2024/01/01 05:16:51;;;;;;;5.93;2.00;;;7.50;99.90;;;;;;5053245;28;20208;-63
2024/01/01 05:19:18;;;;;;;3.37;1.80;;;7.50;99.90;;;;;;5053195;28;20251;-64
2024/01/01 05:21:45;;;;;;;2.73;1.30;;;7.30;99.90;;;;;;5052642;28;20217;-63
2024/01/01 05:24:11;;;;;;;3.37;1.80;;;7.30;99.90;;;;;;5052766;28;20275;-64
2024/01/01 05:26:38;;;;;;;5.23;1.77;;;7.30;99.90;;;;;;5052899;28;20249;-66
2024/01/01 05:29:05;;;;;;;2.77;1.60;;;7.20;99.90;;;;;;5053082;28;20671;-64
2024/01/01 05:31:33;;;;;;;4.10;1.37;;;7.20;99.90;;;;;;5052563;28;20248;-63
2024/01/01 05:34:00;;;;;;;4.67;1.30;;;7.30;99.90;;;;;;5052669;28;20222;-64
2024/01/01 05:36:26;;;;;;;3.83;1.30;;;7.20;99.90;;;;;;5052741;28;20205;-66
2024/01/01 05:38:53;;;;;;;3.13;1.30;;;7.30;99.90;;;;;;5052489;28;20233;-63
2024/01/01 05:41:20;;;;;;;2.10;1.20;;;7.40;99.90;;;;;;5052457;28;20225;-65
2024/01/01 05:43:46;;;;;;;2.47;1.40;;;7.50;99.90;;;;;;5052232;28;20228;-65
2024/01/01 05:46:13;;;;;;;3.30;1.20;;;7.40;99.90;;;;;;5052512;28;20221;-64
2024/01/01 05:48:41;;;;;;;2.13;1.17;;;7.60;99.90;;;;;;5052352;28;20216;-64
2024/01/01 05:51:07;;;;;;;2.87;1.20;;;7.70;99.90;;;;;;5052412;28;20625;-64
2024/01/01 05:53:34;;;;;;;2.03;1.40;;;7.70;99.90;;;;;;5051958;28;20218;-64
2024/01/01 05:56:01;;;;;;;2.70;1.17;;;7.70;99.90;;;;;;5052480;28;20586;-65
2024/01/01 05:58:27;;;;;;;2.97;1.13;;;7.80;99.90;;;;;;5052166;28;20227;-64
2024/01/01 06:00:54;;;;;;;7.47;1.70;;;7.80;99.90;;;;;;5052433;28;20232;-65
2024/01/01 06:03:21;;;;;;;3.90;1.50;;;7.90;99.90;;;;;;5051889;28;20252;-65
2024/01/01 06:05:49;;;;;;;4.07;1.50;;;8.00;99.90;;;;;;5051765;28;20213;-62
2024/01/01 06:08:16;;;;;;;2.67;1.50;;;8.10;99.90;;;;;;5052017;28;20741;-62
2024/01/01 06:10:42;;;;;;;2.77;1.30;;;8.10;99.90;;;;;;5052105;28;20229;-63
2024/01/01 06:13:09;;;;;;;3.27;1.33;;;8.20;99.90;;;;;;5052093;28;20217;-63
2024/01/01 06:15:36;;;;;;;3.57;1.37;;;8.10;99.90;;;;;;5052066;28;20244;-63
2024/01/01 06:18:02;;;;;;;1.90;1.10;;;8.10;99.90;;;;;;5052176;28;20209;-64
2024/01/01 06:20:29;;;;;;;3.77;1.50;;;8.20;99.90;;;;;;5051859;28;20201;-64
2024/01/01 06:22:57;;;;;;;4.47;1.37;;;8.20;99.90;;;;;;5051862;28;20226;-63
2024/01/01 06:25:24;;;;;;;2.27;1.30;;;8.30;99.90;;;;;;5051873;28;20221;-64
2024/01/01 06:27:51;;;;;;;4.07;1.47;;;8.20;99.90;;;;;;5051936;28;20251;-64
2024/01/01 06:30:18;;;;;;;3.93;1.73;;;8.20;99.90;;;;;;5051997;28;20204;-64
2024/01/01 06:32:44;;;;;;;2.83;1.40;;;8.20;99.90;;;;;;5051434;28;20312;-64
2024/01/01 06:35:11;;;;;;;6.47;1.50;;;8.30;99.90;;;;;;5051507;28;20645;-65
2024/01/01 06:37:38;;;;;;;4.17;1.90;;;8.50;99.90;;;;;;5051453;28;20624;-65
2024/01/01 06:40:08;;;;;;;2.70;1.33;;;8.50;99.90;;;;;;5051818;28;20244;-63
2024/01/01 06:42:34;;;;;;;4.57;1.67;;;8.60;99.90;;;;;;5051097;28;20727;-63
2024/01/01 06:45:02;;;;;;;3.97;1.60;;;8.50;99.90;;;;;;5051227;28;20707;-63
2024/01/01 06:47:29;;;;;;;2.30;1.00;;;8.60;99.90;;;;;;5051230;28;20255;-63
2024/01/01 06:49:55;;;;;;;3.47;1.47;;;8.50;99.90;;;;;;5051290;28;20288;-63
2024/01/01 06:52:22;;;;;;;6.37;2.30;;;8.40;99.90;;;;;;5051402;28;20308;-63
2024/01/01 06:54:49;;;;;;;8.30;3.23;;;8.40;99.90;;;;;;5051351;28;20208;-62
2024/01/01 06:57:17;;;;;;;3.33;1.40;;;8.20;99.90;;;;;;5051363;28;20263;-65
2024/01/01 06:59:43;;;;;;;3.37;1.53;;;8.10;99.90;;;;;;5051337;28;20210;-64
2024/01/01 07:02:10;;;;;;;6.70;1.87;;;7.90;99.90;;;;;;5051000;28;20229;-64
2024/01/01 07:04:37;;;;;;;3.73;1.30;;;7.70;99.90;;;;;;5051180;28;20209;-64
2024/01/01 07:07:04;;;;;;;5.00;1.53;;;7.60;99.90;;;;;;5051617;28;20240;-63
2024/01/01 07:09:31;;;;;;;7.97;1.30;;;7.60;99.90;;;;;;5050782;28;20469;-63
2024/01/01 07:11:58;;;;;;;3.73;1.97;;;7.50;99.90;;;;;;5051146;28;20204;-64
2024/01/01 07:14:26;;;;;;;2.63;1.27;;;7.40;99.90;;;;;;5051361;28;20272;-65
2024/01/01 07:16:53;;;;;;;4.83;1.90;;;7.30;99.90;;;;;;5051438;28;20201;-65
2024/01/01 07:19:20;;;;;;;3.47;1.30;;;7.30;99.90;;;;;;5051768;28;20286;-63
2024/01/01 07:21:47;;;;;;;5.93;1.23;;;7.30;99.90;;;;;;5051313;28;20209;-63
2024/01/01 07:24:14;;;;;;;4.13;1.83;;;7.20;99.90;;;;;;5051309;28;20229;-65
2024/01/01 07:26:41;;;;;;;1.90;0.97;;;7.10;99.90;;;;;;5051300;28;20217;-63
2024/01/01 07:29:08;;;;;;;4.77;1.47;;;7.20;99.90;;;;;;5051431;28;20675;-65
2024/01/01 07:31:36;;;;;;;3.10;1.20;;;7.10;99.90;;;;;;5050885;28;20228;-65
2024/01/01 07:34:02;;;;;;;8.17;1.70;;;7.20;99.90;;;;;;5051009;28;20609;-63
2024/01/01 07:36:30;;;;;;;5.83;1.03;;;7.20;99.90;;;;;;5051119;28;20671;-64
2024/01/01 07:38:56;;;;;;;8.50;1.63;;;7.20;99.90;;;;;;5051075;28;20683;-65
2024/01/01 07:41:23;;;;;;;6.00;2.30;;;7.30;99.90;;;;;;5051094;28;20208;-63
2024/01/01 07:43:50;;;;;;;3.33;1.30;;;7.30;99.90;;;;;;5050959;28;20222;-63
2024/01/01 07:46:17;;;;;;;4.63;1.53;;;7.30;99.90;;;;;;5050907;28;20591;-65
2024/01/01 07:48:45;;;;;;;3.20;1.47;;;7.30;99.90;;;;;;5051287;28;20221;-65
2024/01/01 07:51:12;;;;;;;3.27;1.20;;;7.40;99.90;;;;;;5051600;28;20209;-63
2024/01/01 07:53:38;;;;;;;5.37;1.37;;;7.40;99.90;;;;;;5050655;28;20312;-64
2024/01/01 07:56:05;;;;;;;3.43;1.20;;;7.40;99.90;;;;;;5051449;28;20209;-63
2024/01/01 07:58:32;;;;;;;3.07;1.53;;;7.40;99.90;;;;;;5052390;28;20592;-63
2024/01/01 08:00:59;;;;;;;3.67;1.20;;;7.50;99.90;;;;;;5052558;28;20264;-63
2024/01/01 08:03:26;;;;;;;5.67;1.20;;;7.50;99.90;;;;;;5050900;28;20237;-63
2024/01/01 08:05:54;;;;;;;4.43;1.40;;;7.60;99.90;;;;;;5050985;28;20761;-63
2024/01/01 08:08:21;;;;;;;4.87;1.50;;;7.70;99.90;;;;;;5051128;28;20256;-63
2024/01/01 08:10:47;;;;;;;4.63;1.30;;;7.70;99.90;;;;;;5051188;28;20211;-63
2024/01/01 08:13:14;;;;;;;7.90;3.50;;;7.70;99.90;;;;;;5050167;28;20226;-60
2024/01/01 08:15:41;;;;;;;5.73;1.50;;;7.80;99.90;;;;;;5050253;28;20324;-62
2024/01/01 08:18:08;;;;;;;7.53;1.70;;;8.00;99.90;;;;;;5050494;28;20285;-60
2024/01/01 08:20:34;;;;;;;4.17;1.63;;;8.20;99.90;;;;;;5050740;28;20197;-60
2024/01/01 08:23:02;;;;;;;7.33;1.50;;;8.50;99.90;;;;;;5053225;28;20267;-61
2024/01/01 08:25:29;;;;;;;5.73;1.87;;;8.70;99.90;;;;;;5052478;28;20256;-61
2024/01/01 08:27:56;;;;;;;4.23;1.17;;;8.80;99.90;;;;;;5036899;28;20312;-61
2024/01/01 08:30:22;;;;;;;5.87;1.60;;;9.10;99.90;;;;;;5052630;28;20201;-60
2024/01/01 08:32:49;;;;;;;3.37;1.30;;;9.20;99.90;;;;;;5052333;28;20229;-62
2024/01/01 08:35:16;;;;;;;4.30;1.40;;;9.20;99.90;;;;;;5052636;28;20296;-60
2024/01/01 08:37:43;;;;;;;4.07;1.33;;;9.10;99.90;;;;;;5052519;28;20205;-61
2024/01/01 08:40:12;;;;;;;3.50;1.10;;;9.00;99.90;;;;;;5052387;28;20240;-60
2024/01/01 08:42:39;;;;;;;5.43;1.83;;;8.90;99.90;;;;;;5052101;28;20733;-60
2024/01/01 08:45:06;;;;;;;4.83;1.70;;;8.80;99.90;;;;;;5052686;28;20206;-60
2024/01/01 08:47:33;;;;;;;4.37;1.10;;;8.60;99.90;;;;;;5052466;28;20252;-60
2024/01/01 08:50:00;;;;;;;5.10;1.50;;;8.50;99.90;;;;;;5052262;28;20209;-60
2024/01/01 08:52:27;;;;;;;3.77;1.10;;;8.60;99.90;;;;;;5051927;28;20276;-60
2024/01/01 08:54:54;;;;;;;3.67;1.00;;;8.60;99.90;;;;;;5052075;28;20694;-61
2024/01/01 08:57:22;;;;;;;6.43;1.57;;;8.70;99.90;;;;;;5052401;28;20214;-61
2024/01/01 08:59:49;;;;;;;3.77;2.10;;;8.90;99.90;;;;;;5052195;28;20428;-61
2024/01/01 09:02:16;;;;;;;8.60;1.23;;;8.90;99.90;;;;;;5051847;28;20228;-61
2024/01/01 09:04:43;;;;;;;5.73;2.30;;;9.20;99.90;;;;;;5051871;28;20643;-61
2024/01/01 09:07:09;;;;;;;3.10;1.53;;;9.40;99.90;;;;;;5047618;28;20290;-63
2024/01/01 09:09:37;;;;;;;3.07;1.47;;;9.50;99.90;;;;;;5052249;28;20210;-66
2024/01/01 09:12:04;;;;;;;4.77;1.30;;;9.50;99.90;;;;;;5051985;28;20205;-62
2024/01/01 09:14:34;;;;;;;2.47;1.10;;;9.40;99.90;;;;;;5051650;28;20206;-64
2024/01/01 09:17:02;;;;;;;5.23;1.50;;;9.30;99.90;;;;;;5036672;28;20194;-62
2024/01/01 09:19:29;;;;;;;4.90;1.10;;;9.20;99.90;;;;;;5051773;28;20584;-65
2024/01/01 09:21:55;;;;;;;6.63;2.57;;;9.20;99.90;;;;;;5015301;28;1032684;-64
2024/01/01 09:24:22;;;;;;;4.83;0.90;;;9.10;99.90;;;;;;5052865;28;20201;-63
2024/01/01 09:26:49;;;;;;;3.93;1.30;;;9.00;99.90;;;;;;5052869;28;20221;-63
2024/01/01 09:29:15;;;;;;;4.80;1.43;;;9.00;99.90;;;;;;5052756;28;20598;-62
2024/01/01 09:31:43;;;;;;;4.97;1.40;;;9.10;99.90;;;;;;5052496;28;20206;-62
2024/01/01 09:34:10;;;;;;;4.30;1.30;;;8.90;99.90;;;;;;5051728;28;20258;-63
2024/01/01 09:36:37;;;;;;;8.07;1.40;;;8.90;99.90;;;;;;5052445;28;20637;-63
2024/01/01 09:39:04;;;;;;;6.93;1.90;;;8.80;99.90;;;;;;5052627;28;20283;-63
2024/01/01 09:41:31;;;;;;;4.20;1.40;;;8.80;99.90;;;;;;5052407;28;20240;-63
2024/01/01 09:43:57;;;;;;;4.27;1.30;;;8.70;99.90;;;;;;5036369;28;20217;-63
2024/01/01 09:46:28;;;;;;;4.40;1.40;;;8.60;99.90;;;;;;5052615;28;20244;-62
2024/01/01 09:48:56;;;;;;;4.67;0.97;;;8.60;99.90;;;;;;5052593;28;20292;-62
2024/01/01 09:51:24;;;;;;;4.87;1.47;;;8.50;99.90;;;;;;5053070;28;20228;-64
2024/01/01 09:53:52;;;;;;;4.73;1.30;;;8.50;99.90;;;;;;5052890;28;20731;-62
2024/01/01 09:56:20;;;;;;;3.87;1.50;;;8.50;99.90;;;;;;5052940;28;20717;-61
2024/01/01 09:58:47;;;;;;;3.13;0.90;;;8.50;99.90;;;;;;5053268;28;20224;-63
2024/01/01 10:01:15;;;;;;;6.07;1.40;;;8.60;99.90;;;;;;5052452;28;20251;-63
2024/01/01 10:03:42;;;;;;;5.20;1.63;;;8.60;99.90;;;;;;5052499;28;20229;-62
2024/01/01 10:06:12;;;;;;;5.20;1.20;;;8.70;99.90;;;;;;5052616;28;20229;-62
2024/01/01 10:08:39;;;;;;;4.10;1.27;;;8.90;99.90;;;;;;5052638;28;20201;-62
2024/01/01 10:11:17;;;;;;;9.53;6.27;;;9.10;99.90;;;;;;5052341;28;20205;-62
2024/01/01 10:13:44;;;;;;;4.63;1.60;;;9.40;99.90;;;;;;5051778;28;20229;-62
2024/01/01 10:16:10;;;;;;;4.97;1.50;;;9.60;99.90;;;;;;5052171;28;20266;-62
2024/01/01 10:18:37;;;;;;;4.00;1.00;;;9.70;99.90;;;;;;5051619;28;20201;-62
2024/01/01 10:21:12;;;;;;;5.90;1.23;;;9.90;99.90;;;;;;5052351;28;20209;-62
2024/01/01 10:23:39;;;;;;;3.77;1.70;;;10.10;99.90;;;;;;5063846;22;20252;-56
2024/01/01 10:26:08;;;;;;;4.27;1.93;;;10.30;99.90;;;;;;5039866;28;20230;-52
2024/01/01 10:28:35;;;;;;;2.03;0.90;;;10.40;99.90;;;;;;5040057;28;20722;-55
2024/01/01 10:31:02;;;;;;;2.47;1.20;;;10.50;99.90;;;;;;5043241;28;20201;-52
2024/01/01 10:33:31;;;;;;;3.77;1.20;;;10.50;99.90;;;;;;5044990;28;20589;-53
2024/01/01 10:36:00;;;;;;;4.40;1.10;;;10.50;99.90;;;;;;5051483;28;20217;-53
2024/01/01 10:38:29;;;;;;;3.90;1.00;;;10.50;99.90;;;;;;5052312;28;20301;-52
2024/01/01 10:40:57;;;;;;;3.60;1.00;;;10.70;99.90;;;;;;5051909;28;20197;-52
2024/01/01 10:43:27;;;;;;;3.60;0.90;;;10.90;99.90;;;;;;5051413;28;20225;-54
2024/01/01 10:46:00;;;;;;;3.50;1.20;;;11.00;99.90;;;;;;5050151;28;20237;-53
2024/01/01 10:48:27;;;;;;;4.20;1.10;;;11.20;99.90;;;;;;5051695;28;20628;-55
2024/01/01 10:51:03;;;;;;;5.33;1.20;;;11.40;99.90;;;;;;5051297;28;20657;-54
2024/01/01 10:53:45;;;;;;;5.47;1.50;;;11.40;99.90;;;;;;5050848;28;20278;-54
2024/01/01 10:56:26;;;;;;;5.63;1.13;;;11.40;99.90;;;;;;5038554;28;20193;-54
2024/01/01 10:59:06;;;;;;;5.07;1.13;;;11.40;99.90;;;;;;5051244;28;20271;-53
2024/01/01 11:01:33;;;;;;;3.33;1.40;;;11.40;99.90;;;;;;5051106;28;20205;-53
2024/01/01 11:04:00;;;;;;;4.13;1.00;;;11.40;99.90;;;;;;5051239;28;20221;-54
2024/01/01 11:06:29;;;;;;;4.00;1.00;;;11.40;99.90;;;;;;5051144;28;20244;-55
2024/01/01 11:08:57;;;;;;;2.73;1.07;;;11.40;99.90;;;;;;5051280;28;20204;-53
2024/01/01 11:11:27;;;;;;;6.83;1.60;;;11.50;99.90;;;;;;5051213;28;20224;-53
2024/01/01 11:13:55;;;;;;;3.17;1.00;;;11.50;99.90;;;;;;5050705;28;20612;-54
2024/01/01 11:16:23;;;;;;;3.20;1.10;;;11.60;99.90;;;;;;5051267;28;20201;-54
2024/01/01 11:18:51;;;;;;;4.33;1.23;;;11.70;99.90;;;;;;5050656;28;20216;-55
2024/01/01 11:21:28;;;;;;;6.13;1.20;;;11.80;99.90;;;;;;5051151;28;20209;-54
2024/01/01 11:23:55;;;;;;;3.10;1.20;;;11.80;99.90;;;;;;5050581;28;20260;-54
2024/01/01 11:26:34;;;;;;;6.60;1.20;;;11.90;99.90;;;;;;5050432;28;20233;-54
2024/01/01 11:29:06;;;;;;;4.90;1.30;;;12.00;99.90;;;;;;5050658;28;20318;-54
2024/01/01 11:31:34;;;;;;;3.17;1.20;;;11.90;99.90;;;;;;5050897;28;20229;-53
2024/01/01 11:34:06;;;;;;;3.53;1.47;;;11.90;99.90;;;;;;5050427;28;20313;-54
2024/01/01 11:36:34;;;;;;;7.63;1.67;;;11.80;99.90;;;;;;5051085;28;20193;-55
2024/01/01 11:39:00;;;;;;;5.47;1.33;;;11.80;99.90;;;;;;5034154;28;20201;-54
2024/01/01 11:41:28;;;;;;;4.50;1.30;;;11.80;99.90;;;;;;5050521;28;20206;-55
2024/01/01 11:44:09;;;;;;;5.70;1.43;;;11.80;99.90;;;;;;5050730;28;20299;-55
2024/01/01 11:46:36;;;;;;;6.73;1.53;;;11.70;99.90;;;;;;5051195;28;20243;-59
2024/01/01 11:49:03;;;;;;;5.37;1.60;;;11.70;99.90;;;;;;5049628;28;20241;-56
2024/01/01 11:51:31;;;;;;;5.17;1.83;;;11.80;99.90;;;;;;5050466;28;20201;-56
2024/01/01 11:54:09;;;;;;;7.40;1.73;;;11.80;99.90;;;;;;5050137;28;20288;-55
2024/01/01 11:56:36;;;;;;;5.73;2.93;;;11.90;99.90;;;;;;5052866;28;20197;-56
2024/01/01 11:59:06;;;;;;;8.07;2.87;;;11.80;99.90;;;;;;5039445;28;20221;-56
2024/01/01 12:01:33;;;;;;;10.27;3.90;;;11.80;99.90;;;;;;5054717;28;20205;-53
2024/01/01 12:04:01;;;;;;;5.30;2.33;;;11.70;99.90;;;;;;5055083;28;20225;-54
2024/01/01 12:06:28;;;;;;;12.03;4.73;;;11.60;99.90;;;;;;5054283;28;20221;-54
2024/01/01 12:09:09;;;;;;;5.73;2.33;;;11.60;99.90;;;;;;5054486;28;20201;-57
2024/01/01 12:11:35;;;;;;;6.43;2.80;;;11.60;99.90;;;;;;5053960;28;20201;-56
2024/01/01 12:14:04;;;;;;;8.20;1.80;;;11.60;99.90;;;;;;5037977;28;20275;-56
2024/01/01 12:16:31;;;;;;;9.33;3.47;;;11.70;99.90;;;;;;5053969;28;20297;-57
2024/01/01 12:18:58;;;;;;;5.83;1.97;;;11.60;99.90;;;;;;5053685;28;20201;-56
2024/01/01 12:21:25;;;;;;;5.20;1.63;;;11.50;99.90;;;;;;5054080;28;20209;-60
2024/01/01 12:24:04;;;;;;;6.30;1.90;;;11.40;99.90;;;;;;5053912;28;20256;-57
2024/01/01 12:26:31;;;;;;;4.97;1.97;;;11.50;99.90;;;;;;5054342;28;20244;-55
2024/01/01 12:29:12;;;;;;;6.00;1.50;;;11.60;99.90;;;;;;5053863;28;20666;-56
2024/01/01 12:31:40;;;;;;;6.53;1.53;;;11.50;99.90;;;;;;5053970;28;20209;-57
2024/01/01 12:34:07;;;;;;;7.37;1.63;;;11.50;99.90;;;;;;5053705;28;20275;-57
2024/01/01 12:36:34;;;;;;;8.17;2.77;;;11.60;99.90;;;;;;5054451;28;20198;-55
2024/01/01 12:39:01;;;;;;;8.97;2.27;;;11.70;99.90;;;;;;5055037;28;20706;-56
2024/01/01 12:41:28;;;;;;;7.40;2.67;;;11.60;99.90;;;;;;5054980;28;20281;-56
2024/01/01 12:43:55;;;;;;;8.10;3.10;;;11.60;99.90;;;;;;5054475;28;20260;-58
2024/01/01 12:46:23;;;;;;;8.73;2.00;;;11.70;99.90;;;;;;5054731;28;20212;-52
2024/01/01 12:48:50;;;;;;;4.97;1.70;;;11.90;99.90;;;;;;5053796;28;20201;-57
2024/01/01 12:51:18;;;;;;;5.30;1.90;;;12.00;99.90;;;;;;5053634;28;20210;-56
2024/01/01 12:53:45;;;;;;;6.67;1.40;;;12.10;99.90;;;;;;5053325;28;20233;-58